sensor_id;sensor_type;location;lat;lon;timestamp;pressure;altitude;pressure_sealevel;temperature
15626;BMP180;7912;51.376;6.126;2023-11-22T00:00:46;102316.00;;;9.30
15626;BMP180;7912;51.376;6.126;2023-11-22T00:03:17;102322.00;;;9.20
15626;BMP180;7912;51.376;6.126;2023-11-22T00:05:44;102332.00;;;9.20
15626;BMP180;7912;51.376;6.126;2023-11-22T00:08:12;102340.00;;;9.20
15626;BMP180;7912;51.376;6.126;2023-11-22T00:10:39;102338.00;;;9.10
15626;BMP180;7912;51.376;6.126;2023-11-22T00:13:09;102336.00;;;9.10
15626;BMP180;7912;51.376;6.126;2023-11-22T00:15:40;102338.00;;;9.10
15626;BMP180;7912;51.376;6.126;2023-11-22T00:18:08;102334.00;;;9.00
15626;BMP180;7912;51.376;6.126;2023-11-22T00:20:35;102336.00;;;9.00
15626;BMP180;7912;51.376;6.126;2023-11-22T00:23:03;102333.00;;;8.90
15626;BMP180;7912;51.376;6.126;2023-11-22T00:25:31;102323.00;;;8.90
15626;BMP180;7912;51.376;6.126;2023-11-22T00:28:00;102330.00;;;8.80
15626;BMP180;7912;51.376;6.126;2023-11-22T00:30:27;102331.00;;;8.80
15626;BMP180;7912;51.376;6.126;2023-11-22T00:32:54;102341.00;;;8.80
15626;BMP180;7912;51.376;6.126;2023-11-22T00:35:22;102331.00;;;8.70
15626;BMP180;7912;51.376;6.126;2023-11-22T00:37:52;102344.00;;;8.70
15626;BMP180;7912;51.376;6.126;2023-11-22T00:40:19;102348.00;;;8.60
15626;BMP180;7912;51.376;6.126;2023-11-22T00:42:47;102352.00;;;8.70
15626;BMP180;7912;51.376;6.126;2023-11-22T00:45:15;102359.00;;;8.60
15626;BMP180;7912;51.376;6.126;2023-11-22T00:47:42;102369.00;;;8.60
15626;BMP180;7912;51.376;6.126;2023-11-22T00:50:10;102355.00;;;8.60
15626;BMP180;7912;51.376;6.126;2023-11-22T00:52:37;102349.00;;;8.60
15626;BMP180;7912;51.376;6.126;2023-11-22T00:55:05;102355.00;;;8.50
15626;BMP180;7912;51.376;6.126;2023-11-22T00:57:32;102350.00;;;8.50
15626;BMP180;7912;51.376;6.126;2023-11-22T00:59:59;102353.00;;;8.40
15626;BMP180;7912;51.376;6.126;2023-11-22T01:02:26;102363.00;;;8.40
15626;BMP180;7912;51.376;6.126;2023-11-22T01:04:54;102354.00;;;8.40
15626;BMP180;7912;51.376;6.126;2023-11-22T01:07:21;102362.00;;;8.40
15626;BMP180;7912;51.376;6.126;2023-11-22T01:09:48;102358.00;;;8.30
15626;BMP180;7912;51.376;6.126;2023-11-22T01:12:16;102363.00;;;8.30
15626;BMP180;7912;51.376;6.126;2023-11-22T01:14:43;102366.00;;;8.30
15626;BMP180;7912;51.376;6.126;2023-11-22T01:17:10;102389.00;;;8.30
15626;BMP180;7912;51.376;6.126;2023-11-22T01:19:37;102375.00;;;8.20
15626;BMP180;7912;51.376;6.126;2023-11-22T01:22:05;102397.00;;;8.20
15626;BMP180;7912;51.376;6.126;2023-11-22T01:24:33;102402.00;;;8.20
15626;BMP180;7912;51.376;6.126;2023-11-22T01:27:00;102400.00;;;8.20
15626;BMP180;7912;51.376;6.126;2023-11-22T01:29:27;102396.00;;;8.20
15626;BMP180;7912;51.376;6.126;2023-11-22T01:31:55;102411.00;;;8.20
15626;BMP180;7912;51.376;6.126;2023-11-22T01:34:28;102405.00;;;8.20
15626;BMP180;7912;51.376;6.126;2023-11-22T01:36:56;102422.00;;;8.10
15626;BMP180;7912;51.376;6.126;2023-11-22T01:39:27;102410.00;;;8.10
15626;BMP180;7912;51.376;6.126;2023-11-22T01:41:54;102427.00;;;8.10
15626;BMP180;7912;51.376;6.126;2023-11-22T01:44:23;102425.00;;;8.10
15626;BMP180;7912;51.376;6.126;2023-11-22T01:47:10;102436.00;;;8.10
15626;BMP180;7912;51.376;6.126;2023-11-22T01:49:38;102439.00;;;8.10
15626;BMP180;7912;51.376;6.126;2023-11-22T01:52:07;102440.00;;;8.10
15626;BMP180;7912;51.376;6.126;2023-11-22T01:54:38;102454.00;;;8.10
15626;BMP180;7912;51.376;6.126;2023-11-22T01:57:06;102461.00;;;8.10
15626;BMP180;7912;51.376;6.126;2023-11-22T01:59:36;102460.00;;;8.10
15626;BMP180;7912;51.376;6.126;2023-11-22T02:02:05;102446.00;;;8.20
15626;BMP180;7912;51.376;6.126;2023-11-22T02:04:32;102457.00;;;8.20
15626;BMP180;7912;51.376;6.126;2023-11-22T02:06:59;102450.00;;;8.20
15626;BMP180;7912;51.376;6.126;2023-11-22T02:09:27;102454.00;;;8.20
15626;BMP180;7912;51.376;6.126;2023-11-22T02:11:54;102445.00;;;8.20
15626;BMP180;7912;51.376;6.126;2023-11-22T02:14:21;102460.00;;;8.20
15626;BMP180;7912;51.376;6.126;2023-11-22T02:16:48;102452.00;;;8.20
15626;BMP180;7912;51.376;6.126;2023-11-22T02:19:17;102453.00;;;8.10
15626;BMP180;7912;51.376;6.126;2023-11-22T02:21:48;102446.00;;;8.10
15626;BMP180;7912;51.376;6.126;2023-11-22T02:24:15;102450.00;;;8.10
15626;BMP180;7912;51.376;6.126;2023-11-22T02:26:46;102458.00;;;8.10
15626;BMP180;7912;51.376;6.126;2023-11-22T02:29:15;102448.00;;;8.00
15626;BMP180;7912;51.376;6.126;2023-11-22T02:31:43;102450.00;;;8.10
15626;BMP180;7912;51.376;6.126;2023-11-22T02:34:10;102453.00;;;8.10
15626;BMP180;7912;51.376;6.126;2023-11-22T02:36:38;102467.00;;;8.00
15626;BMP180;7912;51.376;6.126;2023-11-22T02:39:05;102456.00;;;8.00
15626;BMP180;7912;51.376;6.126;2023-11-22T02:41:33;102468.00;;;8.00
15626;BMP180;7912;51.376;6.126;2023-11-22T02:44:02;102474.00;;;8.00
15626;BMP180;7912;51.376;6.126;2023-11-22T02:46:29;102481.00;;;8.10
15626;BMP180;7912;51.376;6.126;2023-11-22T02:48:58;102469.00;;;8.10
15626;BMP180;7912;51.376;6.126;2023-11-22T02:51:26;102469.00;;;8.10
15626;BMP180;7912;51.376;6.126;2023-11-22T02:53:54;102489.00;;;8.10
15626;BMP180;7912;51.376;6.126;2023-11-22T02:56:21;102496.00;;;8.10
15626;BMP180;7912;51.376;6.126;2023-11-22T02:58:48;102491.00;;;8.10
15626;BMP180;7912;51.376;6.126;2023-11-22T03:01:16;102493.00;;;8.10
15626;BMP180;7912;51.376;6.126;2023-11-22T03:03:43;102487.00;;;8.10
15626;BMP180;7912;51.376;6.126;2023-11-22T03:06:10;102486.00;;;8.10
15626;BMP180;7912;51.376;6.126;2023-11-22T03:08:37;102485.00;;;8.10
15626;BMP180;7912;51.376;6.126;2023-11-22T03:11:08;102494.00;;;8.10
15626;BMP180;7912;51.376;6.126;2023-11-22T03:13:37;102483.00;;;8.10
15626;BMP180;7912;51.376;6.126;2023-11-22T03:16:05;102479.00;;;8.10
15626;BMP180;7912;51.376;6.126;2023-11-22T03:18:32;102479.00;;;8.10
15626;BMP180;7912;51.376;6.126;2023-11-22T03:20:59;102474.00;;;8.10
15626;BMP180;7912;51.376;6.126;2023-11-22T03:23:30;102480.00;;;8.20
15626;BMP180;7912;51.376;6.126;2023-11-22T03:25:58;102461.00;;;8.20
15626;BMP180;7912;51.376;6.126;2023-11-22T03:28:25;102464.00;;;8.20
15626;BMP180;7912;51.376;6.126;2023-11-22T03:30:53;102477.00;;;8.30
15626;BMP180;7912;51.376;6.126;2023-11-22T03:33:20;102471.00;;;8.30
15626;BMP180;7912;51.376;6.126;2023-11-22T03:35:47;102480.00;;;8.30
15626;BMP180;7912;51.376;6.126;2023-11-22T03:38:15;102473.00;;;8.30
15626;BMP180;7912;51.376;6.126;2023-11-22T03:40:42;102483.00;;;8.40
15626;BMP180;7912;51.376;6.126;2023-11-22T03:43:09;102493.00;;;8.40
15626;BMP180;7912;51.376;6.126;2023-11-22T03:45:37;102497.00;;;8.40
15626;BMP180;7912;51.376;6.126;2023-11-22T03:48:07;102498.00;;;8.40
15626;BMP180;7912;51.376;6.126;2023-11-22T03:50:35;102492.00;;;8.40
15626;BMP180;7912;51.376;6.126;2023-11-22T03:53:02;102491.00;;;8.50
15626;BMP180;7912;51.376;6.126;2023-11-22T03:55:29;102504.00;;;8.50
15626;BMP180;7912;51.376;6.126;2023-11-22T03:57:56;102506.00;;;8.50
15626;BMP180;7912;51.376;6.126;2023-11-22T04:00:24;102518.00;;;8.50
15626;BMP180;7912;51.376;6.126;2023-11-22T04:02:51;102529.00;;;8.50
15626;BMP180;7912;51.376;6.126;2023-11-22T04:05:19;102528.00;;;8.50
15626;BMP180;7912;51.376;6.126;2023-11-22T04:07:47;102528.00;;;8.50
15626;BMP180;7912;51.376;6.126;2023-11-22T04:10:14;102548.00;;;8.50
15626;BMP180;7912;51.376;6.126;2023-11-22T04:12:41;102550.00;;;8.50
15626;BMP180;7912;51.376;6.126;2023-11-22T04:15:09;102547.00;;;8.50
15626;BMP180;7912;51.376;6.126;2023-11-22T04:17:38;102557.00;;;8.50
15626;BMP180;7912;51.376;6.126;2023-11-22T04:20:07;102570.00;;;8.50
15626;BMP180;7912;51.376;6.126;2023-11-22T04:22:37;102572.00;;;8.40
15626;BMP180;7912;51.376;6.126;2023-11-22T04:25:05;102570.00;;;8.40
15626;BMP180;7912;51.376;6.126;2023-11-22T04:27:33;102572.00;;;8.40
15626;BMP180;7912;51.376;6.126;2023-11-22T04:30:00;102574.00;;;8.40
15626;BMP180;7912;51.376;6.126;2023-11-22T04:32:28;102569.00;;;8.40
15626;BMP180;7912;51.376;6.126;2023-11-22T04:34:56;102590.00;;;8.40
15626;BMP180;7912;51.376;6.126;2023-11-22T04:37:23;102587.00;;;8.40
15626;BMP180;7912;51.376;6.126;2023-11-22T04:39:53;102581.00;;;8.40
15626;BMP180;7912;51.376;6.126;2023-11-22T04:42:21;102587.00;;;8.40
15626;BMP180;7912;51.376;6.126;2023-11-22T04:44:49;102583.00;;;8.40
15626;BMP180;7912;51.376;6.126;2023-11-22T04:47:17;102583.00;;;8.40
15626;BMP180;7912;51.376;6.126;2023-11-22T04:49:44;102592.00;;;8.40
15626;BMP180;7912;51.376;6.126;2023-11-22T04:52:11;102577.00;;;8.30
15626;BMP180;7912;51.376;6.126;2023-11-22T04:54:39;102581.00;;;8.40
15626;BMP180;7912;51.376;6.126;2023-11-22T04:57:06;102575.00;;;8.40
15626;BMP180;7912;51.376;6.126;2023-11-22T04:59:33;102576.00;;;8.40
15626;BMP180;7912;51.376;6.126;2023-11-22T05:02:01;102573.00;;;8.40
15626;BMP180;7912;51.376;6.126;2023-11-22T05:04:28;102577.00;;;8.40
15626;BMP180;7912;51.376;6.126;2023-11-22T05:06:56;102574.00;;;8.40
15626;BMP180;7912;51.376;6.126;2023-11-22T05:09:23;102585.00;;;8.40
15626;BMP180;7912;51.376;6.126;2023-11-22T05:11:50;102575.00;;;8.40
15626;BMP180;7912;51.376;6.126;2023-11-22T05:14:19;102584.00;;;8.40
15626;BMP180;7912;51.376;6.126;2023-11-22T05:16:46;102603.00;;;8.30
15626;BMP180;7912;51.376;6.126;2023-11-22T05:19:13;102604.00;;;8.30
15626;BMP180;7912;51.376;6.126;2023-11-22T05:21:40;102600.00;;;8.30
15626;BMP180;7912;51.376;6.126;2023-11-22T05:24:08;102608.00;;;8.30
15626;BMP180;7912;51.376;6.126;2023-11-22T05:26:35;102594.00;;;8.20
15626;BMP180;7912;51.376;6.126;2023-11-22T05:29:03;102601.00;;;8.20
15626;BMP180;7912;51.376;6.126;2023-11-22T05:31:32;102607.00;;;8.10
15626;BMP180;7912;51.376;6.126;2023-11-22T05:33:59;102607.00;;;8.10
15626;BMP180;7912;51.376;6.126;2023-11-22T05:36:26;102599.00;;;8.00
15626;BMP180;7912;51.376;6.126;2023-11-22T05:38:53;102604.00;;;8.00
15626;BMP180;7912;51.376;6.126;2023-11-22T05:41:21;102601.00;;;8.00
15626;BMP180;7912;51.376;6.126;2023-11-22T05:43:48;102581.00;;;8.00
15626;BMP180;7912;51.376;6.126;2023-11-22T05:46:16;102603.00;;;7.90
15626;BMP180;7912;51.376;6.126;2023-11-22T05:48:48;102604.00;;;7.90
15626;BMP180;7912;51.376;6.126;2023-11-22T05:51:19;102604.00;;;7.90
15626;BMP180;7912;51.376;6.126;2023-11-22T05:53:47;102610.00;;;7.90
15626;BMP180;7912;51.376;6.126;2023-11-22T05:56:14;102607.00;;;7.90
15626;BMP180;7912;51.376;6.126;2023-11-22T05:58:42;102603.00;;;7.90
15626;BMP180;7912;51.376;6.126;2023-11-22T06:01:10;102611.00;;;8.00
15626;BMP180;7912;51.376;6.126;2023-11-22T06:03:40;102601.00;;;7.90
15626;BMP180;7912;51.376;6.126;2023-11-22T06:06:08;102608.00;;;7.90
15626;BMP180;7912;51.376;6.126;2023-11-22T06:08:35;102617.00;;;8.00
15626;BMP180;7912;51.376;6.126;2023-11-22T06:11:03;102616.00;;;8.00
15626;BMP180;7912;51.376;6.126;2023-11-22T06:13:30;102621.00;;;8.00
15626;BMP180;7912;51.376;6.126;2023-11-22T06:15:58;102623.00;;;7.90
15626;BMP180;7912;51.376;6.126;2023-11-22T06:18:26;102621.00;;;7.90
15626;BMP180;7912;51.376;6.126;2023-11-22T06:20:57;102622.00;;;7.90
15626;BMP180;7912;51.376;6.126;2023-11-22T06:23:24;102640.00;;;7.90
15626;BMP180;7912;51.376;6.126;2023-11-22T06:25:51;102640.00;;;7.90
15626;BMP180;7912;51.376;6.126;2023-11-22T06:28:19;102634.00;;;7.80
15626;BMP180;7912;51.376;6.126;2023-11-22T06:30:46;102645.00;;;7.80
15626;BMP180;7912;51.376;6.126;2023-11-22T06:33:13;102633.00;;;7.80
15626;BMP180;7912;51.376;6.126;2023-11-22T06:35:41;102640.00;;;7.80
15626;BMP180;7912;51.376;6.126;2023-11-22T06:38:09;102653.00;;;7.80
15626;BMP180;7912;51.376;6.126;2023-11-22T06:40:36;102644.00;;;7.80
15626;BMP180;7912;51.376;6.126;2023-11-22T06:43:04;102658.00;;;7.80
15626;BMP180;7912;51.376;6.126;2023-11-22T06:45:31;102663.00;;;7.80
15626;BMP180;7912;51.376;6.126;2023-11-22T06:47:59;102638.00;;;7.80
15626;BMP180;7912;51.376;6.126;2023-11-22T06:50:27;102628.00;;;7.70
15626;BMP180;7912;51.376;6.126;2023-11-22T06:52:55;102643.00;;;7.80
15626;BMP180;7912;51.376;6.126;2023-11-22T06:55:22;102645.00;;;7.80
15626;BMP180;7912;51.376;6.126;2023-11-22T06:57:49;102662.00;;;7.70
15626;BMP180;7912;51.376;6.126;2023-11-22T07:00:17;102661.00;;;7.70
15626;BMP180;7912;51.376;6.126;2023-11-22T07:02:45;102667.00;;;7.80
15626;BMP180;7912;51.376;6.126;2023-11-22T07:05:12;102681.00;;;7.80
15626;BMP180;7912;51.376;6.126;2023-11-22T07:07:41;102682.00;;;7.80
15626;BMP180;7912;51.376;6.126;2023-11-22T07:10:09;102697.00;;;7.80
15626;BMP180;7912;51.376;6.126;2023-11-22T07:12:38;102702.00;;;7.80
15626;BMP180;7912;51.376;6.126;2023-11-22T07:15:07;102709.00;;;7.80
15626;BMP180;7912;51.376;6.126;2023-11-22T07:17:36;102702.00;;;7.80
15626;BMP180;7912;51.376;6.126;2023-11-22T07:20:05;102696.00;;;7.70
15626;BMP180;7912;51.376;6.126;2023-11-22T07:22:36;102699.00;;;7.80
15626;BMP180;7912;51.376;6.126;2023-11-22T07:25:04;102694.00;;;7.80
15626;BMP180;7912;51.376;6.126;2023-11-22T07:27:33;102683.00;;;7.80
15626;BMP180;7912;51.376;6.126;2023-11-22T07:30:01;102668.00;;;7.80
15626;BMP180;7912;51.376;6.126;2023-11-22T07:32:29;102671.00;;;7.80
15626;BMP180;7912;51.376;6.126;2023-11-22T07:34:57;102666.00;;;7.80
15626;BMP180;7912;51.376;6.126;2023-11-22T07:37:24;102699.00;;;7.80
15626;BMP180;7912;51.376;6.126;2023-11-22T07:39:52;102675.00;;;7.90
15626;BMP180;7912;51.376;6.126;2023-11-22T07:42:20;102670.00;;;8.00
15626;BMP180;7912;51.376;6.126;2023-11-22T07:44:49;102667.00;;;8.00
15626;BMP180;7912;51.376;6.126;2023-11-22T07:47:23;102649.00;;;8.10
15626;BMP180;7912;51.376;6.126;2023-11-22T07:49:51;102655.00;;;8.20
15626;BMP180;7912;51.376;6.126;2023-11-22T07:52:19;102646.00;;;8.30
15626;BMP180;7912;51.376;6.126;2023-11-22T07:54:46;102658.00;;;8.30
15626;BMP180;7912;51.376;6.126;2023-11-22T07:57:14;102649.00;;;8.40
15626;BMP180;7912;51.376;6.126;2023-11-22T07:59:41;102651.00;;;8.40
15626;BMP180;7912;51.376;6.126;2023-11-22T08:02:09;102658.00;;;8.40
15626;BMP180;7912;51.376;6.126;2023-11-22T08:04:39;102667.00;;;8.40
15626;BMP180;7912;51.376;6.126;2023-11-22T08:07:07;102664.00;;;8.40
15626;BMP180;7912;51.376;6.126;2023-11-22T08:09:35;102674.00;;;8.50
15626;BMP180;7912;51.376;6.126;2023-11-22T08:12:02;102685.00;;;8.50
15626;BMP180;7912;51.376;6.126;2023-11-22T08:14:36;102683.00;;;8.50
15626;BMP180;7912;51.376;6.126;2023-11-22T08:17:04;102679.00;;;8.40
15626;BMP180;7912;51.376;6.126;2023-11-22T08:19:33;102687.00;;;8.50
15626;BMP180;7912;51.376;6.126;2023-11-22T08:22:00;102685.00;;;8.40
15626;BMP180;7912;51.376;6.126;2023-11-22T08:24:27;102697.00;;;8.40
15626;BMP180;7912;51.376;6.126;2023-11-22T08:26:55;102708.00;;;8.40
15626;BMP180;7912;51.376;6.126;2023-11-22T08:29:24;102723.00;;;8.40
15626;BMP180;7912;51.376;6.126;2023-11-22T08:31:52;102724.00;;;8.40
15626;BMP180;7912;51.376;6.126;2023-11-22T08:34:19;102747.00;;;8.40
15626;BMP180;7912;51.376;6.126;2023-11-22T08:36:47;102746.00;;;8.40
15626;BMP180;7912;51.376;6.126;2023-11-22T08:39:14;102755.00;;;8.40
15626;BMP180;7912;51.376;6.126;2023-11-22T08:41:42;102750.00;;;8.50
15626;BMP180;7912;51.376;6.126;2023-11-22T08:44:09;102733.00;;;8.50
15626;BMP180;7912;51.376;6.126;2023-11-22T08:46:37;102733.00;;;8.60
15626;BMP180;7912;51.376;6.126;2023-11-22T08:49:04;102725.00;;;8.70
15626;BMP180;7912;51.376;6.126;2023-11-22T08:51:31;102726.00;;;8.80
15626;BMP180;7912;51.376;6.126;2023-11-22T08:54:00;102730.00;;;8.80
15626;BMP180;7912;51.376;6.126;2023-11-22T08:56:28;102730.00;;;8.90
15626;BMP180;7912;51.376;6.126;2023-11-22T08:58:55;102720.00;;;9.00
15626;BMP180;7912;51.376;6.126;2023-11-22T09:01:23;102721.00;;;9.10
15626;BMP180;7912;51.376;6.126;2023-11-22T09:03:50;102735.00;;;9.10
15626;BMP180;7912;51.376;6.126;2023-11-22T09:06:18;102739.00;;;9.10
15626;BMP180;7912;51.376;6.126;2023-11-22T09:08:46;102741.00;;;9.10
15626;BMP180;7912;51.376;6.126;2023-11-22T09:11:15;102739.00;;;9.10
15626;BMP180;7912;51.376;6.126;2023-11-22T09:13:44;102719.00;;;9.10
15626;BMP180;7912;51.376;6.126;2023-11-22T09:16:12;102732.00;;;9.20
15626;BMP180;7912;51.376;6.126;2023-11-22T09:18:39;102731.00;;;9.20
15626;BMP180;7912;51.376;6.126;2023-11-22T09:21:07;102735.00;;;9.20
15626;BMP180;7912;51.376;6.126;2023-11-22T09:23:36;102742.00;;;9.30
15626;BMP180;7912;51.376;6.126;2023-11-22T09:26:04;102739.00;;;9.40
15626;BMP180;7912;51.376;6.126;2023-11-22T09:28:32;102751.00;;;9.50
15626;BMP180;7912;51.376;6.126;2023-11-22T09:30:59;102751.00;;;9.60
15626;BMP180;7912;51.376;6.126;2023-11-22T09:33:33;102748.00;;;9.70
15626;BMP180;7912;51.376;6.126;2023-11-22T09:36:01;102739.00;;;9.80
15626;BMP180;7912;51.376;6.126;2023-11-22T09:38:36;102731.00;;;9.90
15626;BMP180;7912;51.376;6.126;2023-11-22T09:41:05;102723.00;;;10.00
15626;BMP180;7912;51.376;6.126;2023-11-22T09:43:35;102725.00;;;10.10
15626;BMP180;7912;51.376;6.126;2023-11-22T09:46:03;102738.00;;;10.20
15626;BMP180;7912;51.376;6.126;2023-11-22T09:48:31;102758.00;;;10.40
15626;BMP180;7912;51.376;6.126;2023-11-22T09:53:49;102754.00;;;10.50
15626;BMP180;7912;51.376;6.126;2023-11-22T09:56:20;102748.00;;;10.60
15626;BMP180;7912;51.376;6.126;2023-11-22T09:58:51;102750.00;;;10.60
15626;BMP180;7912;51.376;6.126;2023-11-22T10:01:23;102747.00;;;10.60
15626;BMP180;7912;51.376;6.126;2023-11-22T10:03:51;102734.00;;;10.70
15626;BMP180;7912;51.376;6.126;2023-11-22T10:06:19;102732.00;;;10.70
15626;BMP180;7912;51.376;6.126;2023-11-22T10:08:49;102730.00;;;10.80
15626;BMP180;7912;51.376;6.126;2023-11-22T10:11:18;102731.00;;;10.80
15626;BMP180;7912;51.376;6.126;2023-11-22T10:13:51;102733.00;;;10.80
15626;BMP180;7912;51.376;6.126;2023-11-22T10:16:19;102736.00;;;11.00
15626;BMP180;7912;51.376;6.126;2023-11-22T10:18:49;102737.00;;;11.00
15626;BMP180;7912;51.376;6.126;2023-11-22T10:21:29;102729.00;;;11.10
15626;BMP180;7912;51.376;6.126;2023-11-22T10:24:03;102728.00;;;11.20
15626;BMP180;7912;51.376;6.126;2023-11-22T10:26:31;102734.00;;;11.30
15626;BMP180;7912;51.376;6.126;2023-11-22T10:28:59;102731.00;;;11.50
15626;BMP180;7912;51.376;6.126;2023-11-22T10:31:27;102729.00;;;11.70
15626;BMP180;7912;51.376;6.126;2023-11-22T10:33:55;102717.00;;;11.90
15626;BMP180;7912;51.376;6.126;2023-11-22T10:36:25;102717.00;;;12.10
15626;BMP180;7912;51.376;6.126;2023-11-22T10:38:54;102720.00;;;12.30
15626;BMP180;7912;51.376;6.126;2023-11-22T10:41:22;102720.00;;;12.50
15626;BMP180;7912;51.376;6.126;2023-11-22T10:43:52;102714.00;;;12.60
15626;BMP180;7912;51.376;6.126;2023-11-22T10:46:30;102703.00;;;12.80
15626;BMP180;7912;51.376;6.126;2023-11-22T10:48:58;102701.00;;;12.80
15626;BMP180;7912;51.376;6.126;2023-11-22T10:51:33;102702.00;;;12.80
15626;BMP180;7912;51.376;6.126;2023-11-22T10:54:01;102711.00;;;12.90
15626;BMP180;7912;51.376;6.126;2023-11-22T10:56:39;102708.00;;;13.00
15626;BMP180;7912;51.376;6.126;2023-11-22T10:59:14;102706.00;;;12.90
15626;BMP180;7912;51.376;6.126;2023-11-22T11:01:47;102710.00;;;13.00
15626;BMP180;7912;51.376;6.126;2023-11-22T11:04:28;102713.00;;;13.10
15626;BMP180;7912;51.376;6.126;2023-11-22T11:06:57;102707.00;;;13.30
15626;BMP180;7912;51.376;6.126;2023-11-22T11:09:27;102692.00;;;13.40
15626;BMP180;7912;51.376;6.126;2023-11-22T11:12:00;102699.00;;;13.60
15626;BMP180;7912;51.376;6.126;2023-11-22T11:14:35;102691.00;;;13.70
15626;BMP180;7912;51.376;6.126;2023-11-22T11:17:07;102682.00;;;13.80
15626;BMP180;7912;51.376;6.126;2023-11-22T11:19:35;102679.00;;;13.90
15626;BMP180;7912;51.376;6.126;2023-11-22T11:22:03;102677.00;;;14.00
15626;BMP180;7912;51.376;6.126;2023-11-22T11:24:41;102669.00;;;14.10
15626;BMP180;7912;51.376;6.126;2023-11-22T11:27:11;102675.00;;;14.10
15626;BMP180;7912;51.376;6.126;2023-11-22T11:29:39;102675.00;;;14.10
15626;BMP180;7912;51.376;6.126;2023-11-22T11:32:15;102674.00;;;14.10
15626;BMP180;7912;51.376;6.126;2023-11-22T11:34:48;102667.00;;;13.90
15626;BMP180;7912;51.376;6.126;2023-11-22T11:37:20;102674.00;;;13.90
15626;BMP180;7912;51.376;6.126;2023-11-22T11:39:47;102674.00;;;13.80
15626;BMP180;7912;51.376;6.126;2023-11-22T11:42:15;102677.00;;;13.70
15626;BMP180;7912;51.376;6.126;2023-11-22T11:45:06;102678.00;;;13.70
15626;BMP180;7912;51.376;6.126;2023-11-22T11:47:34;102684.00;;;13.60
15626;BMP180;7912;51.376;6.126;2023-11-22T11:50:02;102690.00;;;13.60
15626;BMP180;7912;51.376;6.126;2023-11-22T11:52:30;102688.00;;;13.60
15626;BMP180;7912;51.376;6.126;2023-11-22T11:54:58;102671.00;;;13.60
15626;BMP180;7912;51.376;6.126;2023-11-22T11:57:31;102654.00;;;13.60
15626;BMP180;7912;51.376;6.126;2023-11-22T11:59:59;102627.00;;;13.60
15626;BMP180;7912;51.376;6.126;2023-11-22T12:02:27;102613.00;;;13.60
15626;BMP180;7912;51.376;6.126;2023-11-22T12:04:54;102608.00;;;13.70
15626;BMP180;7912;51.376;6.126;2023-11-22T12:07:22;102608.00;;;13.70
15626;BMP180;7912;51.376;6.126;2023-11-22T12:09:49;102600.00;;;13.60
15626;BMP180;7912;51.376;6.126;2023-11-22T12:12:16;102591.00;;;13.50
15626;BMP180;7912;51.376;6.126;2023-11-22T12:14:44;102585.00;;;13.30
15626;BMP180;7912;51.376;6.126;2023-11-22T12:17:16;102581.00;;;13.20
15626;BMP180;7912;51.376;6.126;2023-11-22T12:19:43;102575.00;;;13.00
15626;BMP180;7912;51.376;6.126;2023-11-22T12:22:11;102581.00;;;12.90
15626;BMP180;7912;51.376;6.126;2023-11-22T12:24:39;102577.00;;;12.70
15626;BMP180;7912;51.376;6.126;2023-11-22T12:27:10;102573.00;;;12.60
15626;BMP180;7912;51.376;6.126;2023-11-22T12:29:37;102568.00;;;12.50
15626;BMP180;7912;51.376;6.126;2023-11-22T12:32:06;102562.00;;;12.40
15626;BMP180;7912;51.376;6.126;2023-11-22T12:34:34;102560.00;;;12.40
15626;BMP180;7912;51.376;6.126;2023-11-22T12:37:01;102559.00;;;12.40
15626;BMP180;7912;51.376;6.126;2023-11-22T12:39:28;102564.00;;;12.30
15626;BMP180;7912;51.376;6.126;2023-11-22T12:41:56;102574.00;;;12.30
15626;BMP180;7912;51.376;6.126;2023-11-22T12:44:52;102584.00;;;12.40
15626;BMP180;7912;51.376;6.126;2023-11-22T12:47:33;102595.00;;;12.40
15626;BMP180;7912;51.376;6.126;2023-11-22T12:50:03;102596.00;;;12.40
15626;BMP180;7912;51.376;6.126;2023-11-22T12:52:34;102574.00;;;12.50
15626;BMP180;7912;51.376;6.126;2023-11-22T12:55:01;102568.00;;;12.60
15626;BMP180;7912;51.376;6.126;2023-11-22T12:57:31;102585.00;;;12.70
15626;BMP180;7912;51.376;6.126;2023-11-22T12:59:59;102589.00;;;12.70
15626;BMP180;7912;51.376;6.126;2023-11-22T13:02:27;102586.00;;;12.80
15626;BMP180;7912;51.376;6.126;2023-11-22T13:04:56;102584.00;;;12.90
15626;BMP180;7912;51.376;6.126;2023-11-22T13:07:23;102587.00;;;13.00
15626;BMP180;7912;51.376;6.126;2023-11-22T13:09:54;102583.00;;;13.10
15626;BMP180;7912;51.376;6.126;2023-11-22T13:12:21;102575.00;;;13.20
15626;BMP180;7912;51.376;6.126;2023-11-22T13:14:48;102557.00;;;13.40
15626;BMP180;7912;51.376;6.126;2023-11-22T13:17:18;102575.00;;;13.60
15626;BMP180;7912;51.376;6.126;2023-11-22T13:19:45;102573.00;;;13.90
15626;BMP180;7912;51.376;6.126;2023-11-22T13:22:14;102563.00;;;14.20
15626;BMP180;7912;51.376;6.126;2023-11-22T13:24:43;102568.00;;;14.50
15626;BMP180;7912;51.376;6.126;2023-11-22T13:27:10;102574.00;;;14.70
15626;BMP180;7912;51.376;6.126;2023-11-22T13:29:37;102565.00;;;14.70
15626;BMP180;7912;51.376;6.126;2023-11-22T13:32:04;102554.00;;;14.80
15626;BMP180;7912;51.376;6.126;2023-11-22T13:34:35;102578.00;;;14.80
15626;BMP180;7912;51.376;6.126;2023-11-22T13:37:02;102579.00;;;14.80
15626;BMP180;7912;51.376;6.126;2023-11-22T13:39:29;102577.00;;;14.70
15626;BMP180;7912;51.376;6.126;2023-11-22T13:42:00;102586.00;;;14.60
15626;BMP180;7912;51.376;6.126;2023-11-22T13:44:27;102570.00;;;14.60
15626;BMP180;7912;51.376;6.126;2023-11-22T13:46:55;102567.00;;;14.50
15626;BMP180;7912;51.376;6.126;2023-11-22T13:49:24;102566.00;;;14.40
15626;BMP180;7912;51.376;6.126;2023-11-22T13:51:51;102553.00;;;14.20
15626;BMP180;7912;51.376;6.126;2023-11-22T13:54:19;102555.00;;;14.10
15626;BMP180;7912;51.376;6.126;2023-11-22T13:56:46;102540.00;;;13.90
15626;BMP180;7912;51.376;6.126;2023-11-22T13:59:13;102538.00;;;13.90
15626;BMP180;7912;51.376;6.126;2023-11-22T14:01:40;102533.00;;;13.90
15626;BMP180;7912;51.376;6.126;2023-11-22T14:04:09;102544.00;;;13.80
15626;BMP180;7912;51.376;6.126;2023-11-22T14:06:37;102543.00;;;13.70
15626;BMP180;7912;51.376;6.126;2023-11-22T14:09:04;102531.00;;;13.70
15626;BMP180;7912;51.376;6.126;2023-11-22T14:11:32;102550.00;;;13.50
15626;BMP180;7912;51.376;6.126;2023-11-22T14:14:00;102537.00;;;13.40
15626;BMP180;7912;51.376;6.126;2023-11-22T14:16:29;102548.00;;;13.30
15626;BMP180;7912;51.376;6.126;2023-11-22T14:19:00;102541.00;;;13.20
15626;BMP180;7912;51.376;6.126;2023-11-22T14:21:28;102544.00;;;13.10
15626;BMP180;7912;51.376;6.126;2023-11-22T14:23:57;102536.00;;;12.90
15626;BMP180;7912;51.376;6.126;2023-11-22T14:26:25;102539.00;;;12.80